Time;durP1;ratioP1;P1;durP2;ratioP2;P2;SDS_P1;SDS_P2;PMS_P1;PMS_P2;Temp;Humidity;BMP_temperature;BMP_pressure;BME280_temperature;BME280_humidity;BME280_pressure;Samples;Min_cycle;Max_cycle;Signal;HPM_P1;HPM_P2
2023/03/09 00:00:47;;;;;;;4.32;3.08;;;;;;;-143.58;100.00;61926.94;7345511;19;20038;-67
2023/03/09 00:04:14;;;;;;;7.03;3.45;;;;;;;-143.58;100.00;61926.94;7347831;19;20354;-67
2023/03/09 00:07:37;;;;;;;5.55;3.40;;;;;;;-143.58;100.00;61926.94;7347897;19;20011;-67
2023/03/09 00:11:03;;;;;;;5.78;3.45;;;;;;;-143.58;100.00;61926.94;7348323;19;20022;-66
2023/03/09 00:14:26;;;;;;;7.45;3.15;;;;;;;-143.58;100.00;61926.94;7346079;19;20019;-66
2023/03/09 00:17:49;;;;;;;3.05;2.58;;;;;;;-143.58;100.00;61926.94;7344231;19;20022;-66
2023/03/09 00:21:25;;;;;;;5.15;3.45;;;;;;;-143.58;100.00;61926.94;7344585;19;20033;-66
2023/03/09 00:24:48;;;;;;;4.55;3.67;;;;;;;-143.58;100.00;61926.94;7346884;19;20027;-67
2023/03/09 00:28:11;;;;;;;5.40;3.22;;;;;;;-143.58;100.00;61926.94;7345322;19;20081;-64
2023/03/09 00:31:35;;;;;;;5.63;3.60;;;;;;;-143.58;100.00;61926.94;7345429;19;20370;-63
2023/03/09 00:35:00;;;;;;;4.03;2.97;;;;;;;-143.58;100.00;61926.94;7346818;19;20044;-64
2023/03/09 00:38:23;;;;;;;3.70;3.10;;;;;;;-143.58;100.00;61926.94;7348674;19;20035;-72
2023/03/09 00:41:47;;;;;;;4.70;3.58;;;;;;;-143.58;100.00;61926.94;7349596;19;20485;-74
2023/03/09 00:45:11;;;;;;;6.07;3.97;;;;;;;-143.58;100.00;61926.94;7349034;19;20020;-78
2023/03/09 00:48:38;;;;;;;5.15;3.45;;;;;;;-143.58;100.00;61926.94;7352249;19;20465;-76
2023/03/09 00:52:02;;;;;;;8.75;3.17;;;;;;;-143.58;100.00;61926.94;7346016;19;20094;-75
2023/03/09 00:55:25;;;;;;;3.75;2.80;;;;;;;-143.58;100.00;61926.94;7356467;19;20018;-77
2023/03/09 00:58:49;;;;;;;5.18;3.53;;;;;;;-143.58;100.00;61926.94;7350672;19;20022;-72
2023/03/09 01:02:13;;;;;;;6.00;3.03;;;;;;;-143.58;100.00;61926.94;7353718;19;20505;-74
2023/03/09 01:05:37;;;;;;;4.00;1.98;;;;;;;-143.58;100.00;61926.94;7360477;19;20015;-75
2023/03/09 01:09:00;;;;;;;6.18;3.42;;;;;;;-143.58;100.00;61926.94;7361108;19;20029;-73
2023/03/09 01:11:25;;;;;;;2.72;2.03;;;;;;;-2.49;80.43;97301.94;7362386;19;20041;-77
2023/03/09 01:13:51;;;;;;;4.10;2.97;;;;;;;-2.44;80.90;97305.94;7358281;19;20067;-74
2023/03/09 01:16:16;;;;;;;3.83;2.75;;;;;;;-2.44;81.16;97300.72;7357873;19;20021;-74
2023/03/09 01:18:41;;;;;;;5.55;3.75;;;;;;;-2.48;80.96;97301.00;7363350;19;20014;-78
2023/03/09 01:21:06;;;;;;;5.28;3.30;;;;;;;-2.46;80.74;97296.50;7355504;19;20050;-77
2023/03/09 01:23:32;;;;;;;6.18;4.00;;;;;;;-2.57;80.36;97300.56;7361669;19;20063;-77
2023/03/09 01:25:58;;;;;;;5.18;3.58;;;;;;;-2.56;80.54;97302.25;7360015;19;20031;-78
2023/03/09 01:28:23;;;;;;;3.97;2.70;;;;;;;-2.61;80.48;97299.09;7357239;19;20026;-75
2023/03/09 01:30:49;;;;;;;8.85;2.72;;;;;;;-2.54;80.73;97301.34;7358517;19;20477;-76
2023/03/09 01:33:14;;;;;;;5.95;3.70;;;;;;;-2.71;80.74;97300.50;7353650;19;20426;-74
2023/03/09 01:35:39;;;;;;;5.80;3.65;;;;;;;-2.84;80.89;97307.34;7354745;19;20026;-76
2023/03/09 01:38:04;;;;;;;5.22;3.38;;;;;;;-2.93;81.25;97302.63;7346306;19;20082;-73
2023/03/09 01:40:30;;;;;;;5.72;3.90;;;;;;;-2.97;81.42;97301.13;7340789;19;20419;-72
2023/03/09 01:43:00;;;;;;;6.90;3.80;;;;;;;-2.89;81.84;97304.13;7344635;19;20351;-72
2023/03/09 01:45:25;;;;;;;7.82;4.15;;;;;;;-2.89;81.89;97306.75;7345664;19;20014;-80
2023/03/09 01:47:49;;;;;;;9.10;3.75;;;;;;;-2.96;81.80;97308.03;7348181;19;20013;-80
2023/03/09 01:50:18;;;;;;;6.22;3.15;;;;;;;-3.03;81.82;97311.84;7347903;19;20010;-79
2023/03/09 01:52:45;;;;;;;5.80;3.42;;;;;;;-3.01;81.92;97316.06;7348714;19;20070;-77
2023/03/09 01:55:14;;;;;;;8.80;3.58;;;;;;;-3.09;81.87;97314.81;7347712;19;20015;-77
2023/03/09 01:57:51;;;;;;;4.72;3.30;;;;;;;-2.99;82.14;97308.19;7345068;19;20011;-75
2023/03/09 02:00:21;;;;;;;4.80;3.10;;;;;;;-2.97;82.36;97306.34;7343880;19;20026;-72
2023/03/09 02:03:11;;;;;;;5.15;3.25;;;;;;;-3.20;81.90;97310.19;7344338;19;20513;-73
2023/03/09 02:05:56;;;;;;;3.10;2.78;;;;;;;-3.23;81.62;97307.72;7344659;19;20034;-74
2023/03/09 02:08:22;;;;;;;3.60;2.53;;;;;;;-3.25;81.68;97311.34;7351353;19;20007;-73
2023/03/09 02:10:58;;;;;;;6.50;3.30;;;;;;;-3.31;81.68;97313.38;7354832;19;20036;-74
2023/03/09 02:13:31;;;;;;;5.53;3.35;;;;;;;-3.30;81.77;97319.41;7360464;19;20010;-73
2023/03/09 02:15:56;;;;;;;3.58;2.60;;;;;;;-3.27;81.94;97328.84;7360973;19;20074;-72
2023/03/09 02:18:20;;;;;;;5.63;2.83;;;;;;;-3.30;82.00;97325.47;7357350;19;20029;-73
2023/03/09 02:21:05;;;;;;;3.40;2.75;;;;;;;-3.20;82.16;97336.25;7352172;19;20010;-74
2023/03/09 02:23:32;;;;;;;5.18;3.20;;;;;;;-3.35;81.93;97337.03;7350925;19;20010;-73
2023/03/09 02:26:14;;;;;;;6.35;3.80;;;;;;;-3.40;81.98;97326.88;7352416;19;20041;-74
2023/03/09 02:28:39;;;;;;;3.75;2.55;;;;;;;-3.32;81.98;97342.09;7356123;19;20074;-73
2023/03/09 02:31:06;;;;;;;5.07;3.38;;;;;;;-3.36;81.92;97346.63;7356969;19;20469;-76
2023/03/09 02:33:31;;;;;;;7.70;3.67;;;;;;;-3.41;81.92;97345.19;7359595;19;20383;-75
2023/03/09 02:35:59;;;;;;;6.50;4.25;;;;;;;-3.45;81.96;97338.44;7363583;19;20010;-75
2023/03/09 02:38:25;;;;;;;5.07;2.50;;;;;;;-3.40;81.99;97345.13;7357487;19;20457;-74
2023/03/09 02:40:52;;;;;;;5.88;3.15;;;;;;;-3.50;81.96;97345.69;7351654;19;20385;-74
2023/03/09 02:43:23;;;;;;;3.42;2.05;;;;;;;-3.44;82.08;97350.56;7350127;19;20018;-72
2023/03/09 02:45:49;;;;;;;5.07;3.35;;;;;;;-3.53;81.94;97359.69;7349398;19;20029;-73
2023/03/09 02:48:14;;;;;;;4.57;3.17;;;;;;;-3.50;81.97;97348.28;7350121;19;20022;-74
2023/03/09 02:50:39;;;;;;;5.28;2.78;;;;;;;-3.50;82.08;97369.94;7348853;19;20006;-74
2023/03/09 02:53:04;;;;;;;3.47;2.50;;;;;;;-3.61;81.98;97364.44;7350088;19;20018;-72
2023/03/09 02:55:31;;;;;;;9.48;3.55;;;;;;;-3.60;81.92;97363.50;7348626;19;20041;-74
2023/03/09 02:57:57;;;;;;;2.22;1.65;;;;;;;-3.52;82.32;97366.59;7348561;19;20006;-73
2023/03/09 03:00:22;;;;;;;4.25;2.70;;;;;;;-3.57;82.02;97365.13;7346707;19;20025;-74
2023/03/09 03:02:48;;;;;;;5.47;3.20;;;;;;;-3.63;82.09;97368.06;7350450;19;20037;-73
2023/03/09 03:05:12;;;;;;;5.97;2.90;;;;;;;-3.74;81.97;97361.63;7348891;19;20014;-75
2023/03/09 03:07:39;;;;;;;6.50;3.10;;;;;;;-3.68;81.83;97368.28;7348849;19;20029;-76
2023/03/09 03:10:04;;;;;;;6.15;4.05;;;;;;;-3.64;81.84;97366.38;7347201;19;20015;-76
2023/03/09 03:12:30;;;;;;;5.65;2.97;;;;;;;-3.72;81.71;97361.53;7349678;19;20014;-76
2023/03/09 03:14:57;;;;;;;4.90;2.97;;;;;;;-3.77;81.22;97363.53;7345175;19;20091;-76
2023/03/09 03:17:22;;;;;;;3.17;2.35;;;;;;;-3.80;80.94;97361.94;7350429;19;20014;-75
2023/03/09 03:19:46;;;;;;;3.13;2.25;;;;;;;-3.81;81.15;97351.59;7349198;19;20082;-75
2023/03/09 03:22:11;;;;;;;3.55;2.67;;;;;;;-3.85;81.09;97369.16;7351491;19;20050;-76
2023/03/09 03:24:38;;;;;;;7.60;2.50;;;;;;;-3.89;80.78;97371.97;7351362;19;20338;-76
2023/03/09 03:27:04;;;;;;;3.92;2.72;;;;;;;-3.82;80.90;97368.13;7349887;19;20014;-73
2023/03/09 03:29:28;;;;;;;3.78;2.38;;;;;;;-3.72;81.17;97374.53;7349550;19;20013;-75
2023/03/09 03:31:53;;;;;;;3.97;2.85;;;;;;;-3.75;80.96;97366.91;7349151;19;20010;-74
2023/03/09 03:34:20;;;;;;;3.10;2.30;;;;;;;-3.81;80.80;97375.00;7346313;19;20041;-76
2023/03/09 03:36:46;;;;;;;6.72;2.50;;;;;;;-3.88;80.53;97373.66;7348040;19;20015;-74
2023/03/09 03:39:11;;;;;;;5.70;3.03;;;;;;;-3.90;80.49;97375.47;7351637;19;20025;-74
2023/03/09 03:41:36;;;;;;;4.85;3.15;;;;;;;-3.98;80.59;97383.69;7349269;19;20061;-76
2023/03/09 03:44:05;;;;;;;3.63;2.30;;;;;;;-3.90;80.85;97378.09;7351863;19;20007;-77
2023/03/09 03:46:30;;;;;;;8.02;3.65;;;;;;;-3.95;80.63;97383.50;7353736;19;20021;-74
2023/03/09 03:48:56;;;;;;;4.70;2.67;;;;;;;-4.02;80.71;97379.53;7350351;19;20017;-76
2023/03/09 03:51:22;;;;;;;7.00;3.88;;;;;;;-4.03;80.52;97396.91;7353881;19;20021;-78
2023/03/09 03:53:50;;;;;;;2.47;2.22;;;;;;;-3.87;81.07;97385.75;7353331;19;20011;-72
2023/03/09 03:56:15;;;;;;;6.57;2.25;;;;;;;-3.99;80.49;97381.16;7353564;19;20014;-75
2023/03/09 03:58:43;;;;;;;6.50;3.78;;;;;;;-3.96;80.40;97386.22;7353054;19;20018;-75
2023/03/09 04:01:08;;;;;;;5.13;3.53;;;;;;;-4.00;80.16;97376.88;7351649;19;20010;-76
2023/03/09 04:03:33;;;;;;;4.13;2.70;;;;;;;-3.99;80.28;97386.34;7351888;19;20018;-74
2023/03/09 04:06:02;;;;;;;5.78;3.63;;;;;;;-4.08;79.95;97393.72;7352247;19;20015;-75
2023/03/09 04:08:27;;;;;;;2.20;1.95;;;;;;;-4.11;80.18;97388.66;7353874;19;20013;-75
2023/03/09 04:10:53;;;;;;;4.57;2.97;;;;;;;-4.14;80.11;97394.00;7352773;19;20010;-76
2023/03/09 04:13:18;;;;;;;7.35;3.35;;;;;;;-4.13;79.96;97389.63;7352848;19;20022;-77
2023/03/09 04:15:43;;;;;;;9.80;4.00;;;;;;;-4.12;79.90;97383.50;7354075;19;20450;-76
2023/03/09 04:18:08;;;;;;;4.75;2.83;;;;;;;-4.01;80.27;97396.84;7353764;19;20494;-77
2023/03/09 04:20:35;;;;;;;6.00;3.13;;;;;;;-4.00;79.84;97401.13;7350559;19;20082;-76
2023/03/09 04:23:00;;;;;;;4.35;3.00;;;;;;;-4.04;79.75;97405.63;7352351;19;20018;-76
2023/03/09 04:25:26;;;;;;;5.10;2.58;;;;;;;-3.95;79.68;97404.31;7350395;19;20011;-75
2023/03/09 04:27:51;;;;;;;7.22;2.75;;;;;;;-3.84;79.86;97414.25;7352952;19;20042;-76
2023/03/09 04:30:24;;;;;;;8.10;3.45;;;;;;;-3.78;79.54;97408.72;7349563;19;20015;-76
2023/03/09 04:32:51;;;;;;;3.30;2.28;;;;;;;-3.60;79.21;97415.59;7350798;19;20460;-78
2023/03/09 04:35:17;;;;;;;4.25;2.65;;;;;;;-3.56;78.20;97421.50;7350411;19;20343;-78
2023/03/09 04:37:43;;;;;;;4.55;3.10;;;;;;;-3.52;77.63;97429.09;7351761;19;20037;-78
2023/03/09 04:40:09;;;;;;;5.60;2.45;;;;;;;-3.44;77.51;97424.31;7348587;19;20011;-76
2023/03/09 04:42:34;;;;;;;5.10;2.30;;;;;;;-3.30;77.91;97436.66;7349277;19;20018;-75
2023/03/09 04:44:59;;;;;;;4.78;2.53;;;;;;;-3.39;77.27;97437.97;7346433;19;20023;-75
2023/03/09 04:47:24;;;;;;;4.78;1.85;;;;;;;-3.27;77.17;97436.47;7347114;19;20021;-73
2023/03/09 04:49:49;;;;;;;4.72;2.53;;;;;;;-3.26;76.95;97440.75;7345913;19;20338;-74
2023/03/09 04:52:14;;;;;;;3.58;2.80;;;;;;;-3.37;76.48;97440.47;7348024;19;20018;-74
2023/03/09 04:54:40;;;;;;;5.47;2.92;;;;;;;-3.28;76.55;97457.41;7346151;19;20024;-74
2023/03/09 04:57:06;;;;;;;3.45;1.73;;;;;;;-3.30;76.34;97439.25;7348681;19;20494;-75
2023/03/09 04:59:31;;;;;;;6.43;3.67;;;;;;;-3.19;76.11;97459.53;7346704;19;20015;-74
2023/03/09 05:01:56;;;;;;;6.13;3.10;;;;;;;-3.07;75.86;97440.66;7348690;19;20402;-75
2023/03/09 05:04:27;;;;;;;5.70;3.35;;;;;;;-2.97;75.31;97447.94;7347405;19;20014;-76
2023/03/09 05:06:53;;;;;;;2.67;1.90;;;;;;;-2.82;74.71;97448.06;7351958;19;20014;-76
2023/03/09 05:09:19;;;;;;;3.17;2.05;;;;;;;-2.68;74.87;97466.41;7346585;19;20025;-76
2023/03/09 05:11:46;;;;;;;3.28;2.67;;;;;;;-2.69;73.73;97447.28;7348156;19;20022;-77
2023/03/09 05:14:12;;;;;;;8.38;2.53;;;;;;;-2.72;72.64;97451.84;7343754;19;20018;-76
2023/03/09 05:16:36;;;;;;;3.90;2.45;;;;;;;-2.52;72.87;97459.44;7345538;19;20023;-75
2023/03/09 05:19:02;;;;;;;5.13;3.03;;;;;;;-2.46;71.16;97453.88;7343888;19;20014;-75
2023/03/09 05:21:33;;;;;;;3.90;2.53;;;;;;;-2.32;70.71;97455.75;7344666;19;20014;-76
2023/03/09 05:23:59;;;;;;;4.43;2.33;;;;;;;-2.12;71.79;97454.63;7347621;19;20077;-76
2023/03/09 05:26:24;;;;;;;3.67;2.35;;;;;;;-2.17;70.48;97451.47;7350591;19;20011;-75
2023/03/09 05:28:53;;;;;;;3.63;1.90;;;;;;;-2.05;70.03;97459.44;7351416;19;20025;-76
2023/03/09 05:31:18;;;;;;;3.38;2.45;;;;;;;-1.99;69.90;97453.03;7364394;19;20010;-74
2023/03/09 05:33:45;;;;;;;11.18;2.95;;;;;;;-2.04;69.09;97460.28;7360045;19;20010;-76
2023/03/09 05:36:18;;;;;;;3.70;2.20;;;;;;;-1.93;69.39;97464.00;7356135;19;20019;-75
2023/03/09 05:38:43;;;;;;;2.47;1.75;;;;;;;-1.95;68.75;97458.00;7344763;19;20041;-76
2023/03/09 05:41:08;;;;;;;4.20;2.38;;;;;;;-2.01;67.72;97458.34;7344729;19;20023;-76
2023/03/09 05:43:35;;;;;;;5.25;2.15;;;;;;;-1.90;67.38;97457.72;7344177;19;20006;-76
2023/03/09 05:46:00;;;;;;;6.75;2.80;;;;;;;-1.75;67.38;97458.63;7346299;19;20026;-76
2023/03/09 05:48:25;;;;;;;3.25;1.67;;;;;;;-1.56;67.75;97461.88;7344429;19;20019;-74
2023/03/09 05:50:50;;;;;;;5.80;2.25;;;;;;;-1.44;66.82;97466.41;7345881;19;20017;-74
2023/03/09 05:53:15;;;;;;;5.45;2.65;;;;;;;-1.30;66.98;97469.06;7345249;19;20022;-75
2023/03/09 05:55:41;;;;;;;3.90;2.15;;;;;;;-1.20;67.25;97464.97;7346051;19;20078;-74
2023/03/09 05:58:07;;;;;;;3.65;2.85;;;;;;;-1.17;66.83;97464.78;7344695;19;20015;-74
2023/03/09 06:00:32;;;;;;;2.55;1.92;;;;;;;-1.40;65.45;97467.91;7344002;19;20029;-73
2023/03/09 06:03:00;;;;;;;3.45;2.25;;;;;;;-1.39;65.24;97473.97;7344263;19;20103;-74
2023/03/09 06:05:45;;;;;;;;;;;;;;;-1.29;66.03;97480.34;7345120;19;20038;-73
2023/03/09 06:08:10;;;;;;;;;;;;;;;-1.20;65.47;97492.88;7347946;19;20262;-73
2023/03/09 06:10:36;;;;;;;2.72;1.23;;;;;;;-1.06;66.24;97494.69;7346200;19;19933;-77
2023/03/09 06:13:02;;;;;;;5.35;3.42;;;;;;;-0.89;64.82;97482.28;7346825;19;20010;-76
2023/03/09 06:15:27;;;;;;;5.50;2.75;;;;;;;-0.93;64.16;97480.78;7344897;19;20034;-76
2023/03/09 06:17:52;;;;;;;4.50;3.08;;;;;;;-0.70;64.35;97479.41;7346344;19;20014;-74
2023/03/09 06:20:20;;;;;;;2.55;1.60;;;;;;;-0.43;64.50;97484.72;7345549;19;20078;-77
2023/03/09 06:22:48;;;;;;;5.20;2.63;;;;;;;0.01;63.15;97492.41;7345886;19;20398;-75
2023/03/09 06:25:14;;;;;;;3.55;2.38;;;;;;;0.77;62.43;97490.06;7344293;19;20022;-77
2023/03/09 06:27:39;;;;;;;5.90;2.65;;;;;;;0.85;59.44;97495.63;7347433;19;20386;-76
2023/03/09 06:30:06;;;;;;;4.68;1.88;;;;;;;1.08;61.20;97489.69;7346250;19;20019;-77
2023/03/09 06:32:34;;;;;;;4.25;2.70;;;;;;;1.04;59.61;97506.56;7349605;19;20014;-76
2023/03/09 06:35:00;;;;;;;4.72;2.60;;;;;;;0.35;59.44;97509.44;7350272;19;20014;-76
2023/03/09 06:37:25;;;;;;;7.68;2.40;;;;;;;0.14;59.93;97505.56;7352423;19;20018;-75
2023/03/09 06:39:51;;;;;;;5.72;3.33;;;;;;;-0.01;61.64;97504.78;7351709;19;20022;-74
2023/03/09 06:42:16;;;;;;;4.38;3.38;;;;;;;0.02;61.67;97519.44;7352610;19;20027;-76
2023/03/09 06:44:50;;;;;;;4.53;2.70;;;;;;;0.67;60.41;97512.59;7344996;19;20018;-75
2023/03/09 06:47:14;;;;;;;10.65;3.20;;;;;;;1.21;58.86;97526.44;7343854;19;20461;-75
2023/03/09 06:49:43;;;;;;;4.53;2.17;;;;;;;1.39;58.11;97505.97;7344274;19;20030;-75
2023/03/09 06:52:11;;;;;;;4.15;2.38;;;;;;;1.39;57.25;97511.22;7354009;19;20023;-75
2023/03/09 06:54:38;;;;;;;4.82;1.80;;;;;;;1.35;57.72;97528.16;7353135;19;20029;-74
2023/03/09 06:57:15;;;;;;;6.65;2.40;;;;;;;1.19;56.64;97530.97;7353376;19;20013;-75
2023/03/09 06:59:40;;;;;;;3.33;2.70;;;;;;;0.91;55.79;97523.22;7351931;19;20015;-74
2023/03/09 07:02:05;;;;;;;7.43;2.17;;;;;;;1.01;56.93;97521.72;7353126;19;20027;-75
2023/03/09 07:04:30;;;;;;;4.97;2.90;;;;;;;1.03;56.18;97527.66;7354481;19;20015;-73
2023/03/09 07:06:55;;;;;;;4.00;2.53;;;;;;;1.13;56.12;97526.09;7357445;19;20540;-75
2023/03/09 07:09:20;;;;;;;4.45;2.10;;;;;;;1.28;55.99;97543.44;7356323;19;20010;-74
2023/03/09 07:11:47;;;;;;;5.13;2.50;;;;;;;1.67;56.15;97537.28;7357636;19;20059;-73
2023/03/09 07:14:11;;;;;;;3.28;2.70;;;;;;;1.86;53.25;97539.44;7354010;19;20018;-73
2023/03/09 07:16:36;;;;;;;5.35;2.42;;;;;;;2.23;55.08;97539.50;7358518;19;20015;-76
2023/03/09 07:19:00;;;;;;;3.42;1.95;;;;;;;1.90;53.45;97538.31;7353926;19;20082;-73
2023/03/09 07:21:26;;;;;;;5.82;2.33;;;;;;;1.93;53.16;97545.09;7352882;19;20017;-72
2023/03/09 07:23:51;;;;;;;6.20;2.67;;;;;;;2.03;50.86;97543.53;7350497;19;20049;-73
2023/03/09 07:26:15;;;;;;;4.72;2.38;;;;;;;2.53;50.57;97543.38;7351169;19;20014;-73
2023/03/09 07:28:40;;;;;;;7.20;2.75;;;;;;;3.20;50.76;97541.03;7350973;19;20045;-73
2023/03/09 07:31:08;;;;;;;7.38;2.95;;;;;;;3.83;47.79;97537.06;7352072;19;20011;-72
2023/03/09 07:33:33;;;;;;;5.20;2.50;;;;;;;4.20;46.78;97523.63;7349649;19;20017;-73
2023/03/09 07:35:57;;;;;;;5.28;2.92;;;;;;;3.94;47.62;97526.53;7355467;19;20015;-73
2023/03/09 07:38:22;;;;;;;4.32;2.35;;;;;;;3.38;48.15;97537.97;7348806;19;20391;-73
2023/03/09 07:40:47;;;;;;;2.97;1.80;;;;;;;2.85;50.08;97535.75;7349642;19;20018;-72
2023/03/09 07:43:12;;;;;;;4.30;2.63;;;;;;;2.40;51.21;97537.31;7350753;19;20021;-75
2023/03/09 07:45:42;;;;;;;3.20;2.55;;;;;;;2.21;51.49;97533.50;7352399;19;20015;-78
2023/03/09 07:48:08;;;;;;;4.32;2.85;;;;;;;2.14;51.60;97554.13;7354117;19;20013;-76
2023/03/09 07:50:33;;;;;;;3.35;1.98;;;;;;;2.02;51.31;97547.97;7352579;19;20010;-76
2023/03/09 07:52:57;;;;;;;5.60;3.05;;;;;;;1.58;50.39;97551.00;7351569;19;20019;-76
2023/03/09 07:55:23;;;;;;;6.45;2.20;;;;;;;1.61;52.25;97556.06;7354248;19;20014;-76
2023/03/09 07:57:48;;;;;;;1.70;1.60;;;;;;;1.55;51.33;97543.38;7350188;19;20006;-77
2023/03/09 08:00:20;;;;;;;6.22;2.78;;;;;;;1.63;51.78;97556.81;7352637;19;20018;-79
2023/03/09 08:02:45;;;;;;;2.78;2.20;;;;;;;1.45;51.28;97555.44;7350343;19;20021;-76
2023/03/09 08:05:10;;;;;;;6.55;2.28;;;;;;;1.54;51.69;97549.56;7349956;19;20010;-78
2023/03/09 08:07:35;;;;;;;5.45;2.65;;;;;;;1.68;50.82;97559.13;7352857;19;20022;-77
2023/03/09 08:09:59;;;;;;;2.60;2.35;;;;;;;1.81;51.01;97554.69;7356012;19;20026;-78
2023/03/09 08:12:24;;;;;;;3.72;2.28;;;;;;;2.03;50.48;97569.81;7357481;19;20033;-78
2023/03/09 08:14:49;;;;;;;5.43;3.17;;;;;;;1.75;50.11;97560.38;7366419;19;20028;-78
2023/03/09 08:17:13;;;;;;;4.00;2.70;;;;;;;1.44;49.65;97557.22;7362151;19;20014;-80
2023/03/09 08:19:38;;;;;;;2.60;1.95;;;;;;;1.37;49.85;97562.97;7356835;19;20362;-77
2023/03/09 08:22:02;;;;;;;3.97;2.50;;;;;;;1.49;51.19;97548.19;7357966;19;20013;-78
2023/03/09 08:24:27;;;;;;;2.78;1.85;;;;;;;1.49;50.76;97566.56;7366480;19;20010;-79
2023/03/09 08:26:52;;;;;;;5.72;2.40;;;;;;;1.23;50.49;97557.84;7367693;19;20042;-78
2023/03/09 08:29:17;;;;;;;4.53;2.92;;;;;;;1.44;50.95;97556.38;7365844;19;20049;-79
2023/03/09 08:31:41;;;;;;;4.15;2.30;;;;;;;1.44;49.83;97551.13;7365205;19;20028;-78
2023/03/09 08:34:06;;;;;;;4.65;2.05;;;;;;;1.45;49.83;97542.31;7363891;19;20469;-79
2023/03/09 08:36:31;;;;;;;2.85;1.85;;;;;;;1.37;50.81;97553.31;7368522;19;20045;-79
2023/03/09 08:38:56;;;;;;;6.63;2.75;;;;;;;1.37;50.84;97555.09;7369689;19;20018;-78
2023/03/09 08:41:21;;;;;;;5.32;1.95;;;;;;;1.44;50.89;97546.72;7363002;19;20018;-78
2023/03/09 08:43:46;;;;;;;3.80;2.22;;;;;;;1.57;50.76;97551.16;7355365;19;20014;-78
2023/03/09 08:46:11;;;;;;;5.00;2.50;;;;;;;1.55;50.77;97534.66;7359558;19;20022;-78
2023/03/09 08:48:36;;;;;;;4.80;1.88;;;;;;;1.58;51.00;97540.50;7374535;19;20029;-78
2023/03/09 08:51:05;;;;;;;2.80;1.92;;;;;;;1.60;51.29;97550.91;7367569;19;20014;-79
2023/03/09 08:53:30;;;;;;;3.97;2.25;;;;;;;1.53;51.02;97545.25;7368040;19;20144;-80
2023/03/09 08:55:55;;;;;;;6.15;2.05;;;;;;;1.53;51.68;97540.00;7367275;19;20042;-78
2023/03/09 08:58:20;;;;;;;3.17;2.38;;;;;;;1.72;52.54;97540.41;7370336;19;20011;-73
2023/03/09 09:00:44;;;;;;;2.63;1.88;;;;;;;1.59;50.71;97536.94;7365850;19;20010;-73
2023/03/09 09:03:09;;;;;;;4.65;2.60;;;;;;;1.77;50.20;97538.31;7369634;19;20042;-72
2023/03/09 09:05:34;;;;;;;5.57;2.95;;;;;;;1.84;48.82;97530.84;7366969;19;20405;-73
2023/03/09 09:07:59;;;;;;;3.65;2.53;;;;;;;2.04;49.14;97534.69;7366071;19;20392;-73
2023/03/09 09:10:24;;;;;;;4.82;2.40;;;;;;;2.09;48.75;97522.91;7362411;19;20018;-73
2023/03/09 09:12:49;;;;;;;2.35;1.90;;;;;;;2.21;48.17;97536.97;7366992;19;20014;-77
2023/03/09 09:15:15;;;;;;;2.90;1.73;;;;;;;2.13;47.79;97529.63;7373968;19;20017;-75
2023/03/09 09:17:40;;;;;;;2.10;1.50;;;;;;;2.28;48.24;97529.47;7364393;19;20482;-73
2023/03/09 09:20:07;;;;;;;4.40;2.20;;;;;;;2.17;47.50;97528.44;7365861;19;20058;-76
2023/03/09 09:22:31;;;;;;;1.85;1.75;;;;;;;1.90;47.33;97538.31;7367484;19;20118;-74
2023/03/09 09:24:56;;;;;;;3.35;1.48;;;;;;;1.92;48.21;97532.94;7369341;19;20014;-74
2023/03/09 09:27:21;;;;;;;3.50;1.48;;;;;;;1.87;48.24;97540.28;7368653;19;20013;-75
2023/03/09 09:29:45;;;;;;;2.60;1.58;;;;;;;1.71;47.55;97532.63;7368499;19;20019;-79
2023/03/09 09:32:10;;;;;;;5.40;2.05;;;;;;;1.88;49.06;97528.84;7360095;19;20022;-79
2023/03/09 09:34:35;;;;;;;2.70;1.92;;;;;;;1.74;48.46;97538.53;7346640;19;20010;-81
2023/03/09 09:37:01;;;;;;;4.88;2.00;;;;;;;1.77;48.55;97538.31;7347458;19;20007;-80
2023/03/09 09:39:27;;;;;;;4.68;1.48;;;;;;;1.61;48.68;97529.81;7348449;19;20067;-80
2023/03/09 09:41:56;;;;;;;2.90;1.50;;;;;;;1.43;48.44;97533.72;7356167;19;20011;-79
2023/03/09 09:44:24;;;;;;;1.98;1.27;;;;;;;1.37;48.75;97526.22;7348197;19;20111;-79
2023/03/09 09:46:52;;;;;;;2.22;1.35;;;;;;;1.25;49.04;97550.69;7347007;19;20056;-75
2023/03/09 09:49:24;;;;;;;7.93;1.75;;;;;;;1.04;48.99;97543.31;7342912;19;20025;-77
2023/03/09 09:52:13;;;;;;;3.55;1.52;;;;;;;1.38;50.09;97535.78;7347891;19;20041;-74
2023/03/09 09:55:00;;;;;;;2.83;1.58;;;;;;;1.14;50.03;97533.03;7345023;19;20021;-76
2023/03/09 09:57:43;;;;;;;4.85;1.33;;;;;;;1.15;50.06;97533.88;7343430;19;20431;-76
2023/03/09 10:00:17;;;;;;;3.40;1.38;;;;;;;0.87;50.81;97524.41;7344361;19;20011;-76
2023/03/09 10:02:49;;;;;;;0.75;0.65;;;;;;;1.28;51.71;97526.88;7343410;19;20007;-75
2023/03/09 10:05:33;;;;;;;1.50;1.13;;;;;;;0.66;51.71;97540.59;7345790;19;20026;-73
2023/03/09 10:08:12;;;;;;;0.90;0.68;;;;;;;0.55;52.47;97539.63;7343669;19;20026;-74
2023/03/09 10:10:39;;;;;;;15.82;2.40;;;;;;;0.46;53.22;97541.03;7346837;19;20018;-74
2023/03/09 10:13:14;;;;;;;5.18;1.73;;;;;;;0.53;53.85;97531.00;7347078;19;20007;-75
2023/03/09 10:15:38;;;;;;;;;;;;;;;0.62;54.18;97546.97;7344288;19;20332;-74
2023/03/09 10:18:15;;;;;;;3.00;1.20;;;;;;;0.62;55.42;97522.53;7344255;19;20243;-76
2023/03/09 10:20:49;;;;;;;32.58;2.67;;;;;;;0.11;57.75;97522.34;7344428;19;20035;-74
2023/03/09 10:23:22;;;;;;;3.08;1.05;;;;;;;-0.06;59.32;97538.25;7342267;19;20015;-74
2023/03/09 10:25:51;;;;;;;0.70;0.70;;;;;;;0.21;59.12;97538.31;7345541;19;20455;-74
2023/03/09 10:28:24;;;;;;;1.63;1.15;;;;;;;-0.12;60.21;97531.66;7346961;19;20014;-80
2023/03/09 10:31:01;;;;;;;3.00;1.60;;;;;;;-0.12;61.52;97538.66;7353633;19;20054;-79
2023/03/09 10:33:35;;;;;;;2.40;1.02;;;;;;;-0.15;61.49;97537.06;7352970;19;20014;-78
2023/03/09 10:36:07;;;;;;;2.47;1.48;;;;;;;-0.07;62.12;97516.47;7355113;19;20033;-78
2023/03/09 10:38:33;;;;;;;1.80;1.63;;;;;;;-0.04;62.16;97528.53;7354797;19;20021;-79
2023/03/09 10:40:57;;;;;;;1.02;0.73;;;;;;;0.02;62.42;97515.03;7354703;19;20018;-78
2023/03/09 10:43:29;;;;;;;5.80;2.33;;;;;;;-0.14;63.78;97523.03;7354600;19;20037;-78
2023/03/09 10:45:55;;;;;;;3.38;1.40;;;;;;;-0.24;65.54;97521.09;7354001;19;20015;-81
2023/03/09 10:48:26;;;;;;;4.97;2.55;;;;;;;-0.29;66.16;97525.75;7351968;19;20019;-75
2023/03/09 10:51:00;;;;;;;4.28;1.58;;;;;;;-0.12;65.50;97522.94;7349062;19;20525;-74
2023/03/09 10:53:31;;;;;;;3.20;1.90;;;;;;;-0.20;66.72;97527.78;7349222;19;20035;-75
2023/03/09 10:56:24;;;;;;;1.58;1.10;;;;;;;-0.13;66.77;97523.88;7347711;19;20082;-75
2023/03/09 10:59:14;;;;;;;3.53;1.50;;;;;;;-0.12;67.13;97521.16;7346271;19;20115;-74
2023/03/09 11:01:42;;;;;;;3.38;1.48;;;;;;;-0.21;67.78;97518.25;7347084;19;20022;-74
2023/03/09 11:04:22;;;;;;;2.60;1.65;;;;;;;-0.25;68.93;97511.53;7350174;19;20014;-74
2023/03/09 11:06:49;;;;;;;2.60;1.75;;;;;;;-0.45;69.84;97510.97;7352827;19;20386;-74
2023/03/09 11:09:18;;;;;;;3.42;2.25;;;;;;;-0.39;69.85;97505.38;7350498;19;20011;-75
2023/03/09 11:11:46;;;;;;;2.88;1.95;;;;;;;-0.44;70.97;97517.91;7350669;19;20014;-74
2023/03/09 11:14:22;;;;;;;2.80;1.75;;;;;;;-0.42;71.18;97509.94;7345853;19;20025;-77
2023/03/09 11:16:56;;;;;;;5.38;2.03;;;;;;;-0.48;71.59;97500.72;7351441;19;20015;-76
2023/03/09 11:19:21;;;;;;;6.50;1.90;;;;;;;-0.46;71.40;97504.09;7350660;19;20022;-77
2023/03/09 11:21:52;;;;;;;3.20;1.33;;;;;;;-0.40;71.53;97505.47;7347622;19;20015;-75
2023/03/09 11:24:18;;;;;;;2.70;1.70;;;;;;;-0.42;72.19;97502.94;7350433;19;20021;-75
2023/03/09 11:26:48;;;;;;;5.35;2.33;;;;;;;-0.55;71.39;97502.00;7348735;19;20018;-79
2023/03/09 11:29:49;;;;;;;6.18;2.72;;;;;;;-0.60;73.59;97504.09;7351370;19;20033;-77
2023/03/09 11:32:14;;;;;;;5.93;2.28;;;;;;;-0.61;74.34;97499.78;7352321;19;20018;-76
2023/03/09 11:34:43;;;;;;;7.70;3.00;;;;;;;-0.66;75.83;97501.81;7352031;19;20014;-77
2023/03/09 11:37:38;;;;;;;4.00;1.25;;;;;;;-0.47;74.46;97499.78;7351544;19;20010;-76
2023/03/09 11:40:11;;;;;;;4.63;2.08;;;;;;;-0.66;74.24;97496.59;7348110;19;20010;-72
2023/03/09 11:42:56;;;;;;;5.07;2.63;;;;;;;-0.84;76.11;97497.72;7349611;19;20513;-72
2023/03/09 11:45:30;;;;;;;2.28;1.63;;;;;;;-0.71;76.21;97506.50;7348324;19;20028;-74
2023/03/09 11:48:03;;;;;;;3.73;1.97;;;;;;;-0.60;74.83;97500.63;7348958;19;20010;-73
2023/03/09 11:50:44;;;;;;;4.93;2.85;;;;;;;-0.80;76.23;97496.59;7349567;19;20022;-75
2023/03/09 11:53:22;;;;;;;4.90;2.20;;;;;;;-0.67;75.63;97496.66;7349615;19;20026;-73
2023/03/09 11:55:52;;;;;;;5.93;2.28;;;;;;;-0.78;76.75;97497.31;7349298;19;20085;-72